Time;durP1;ratioP1;P1;durP2;ratioP2;P2;SDS_P1;SDS_P2;PMS_P1;PMS_P2;Temp;Humidity;BMP_temperature;BMP_pressure;BME280_temperature;BME280_humidity;BME280_pressure;Samples;Min_cycle;Max_cycle;Signal;HPM_P1;HPM_P2
2023/08/09 00:00:45;;;;;;;3.85;1.30;;;;;;;;;;5079438;28;20033;-76
2023/08/09 00:03:10;;;;;;;2.25;1.42;;;;;;;;;;5080787;28;20078;-76
2023/08/09 00:05:36;;;;;;;3.78;1.42;;;;;;;;;;5078447;28;20028;-76
2023/08/09 00:08:01;;;;;;;1.70;1.35;;;;;;;;;;5079402;28;20036;-76
2023/08/09 00:10:26;;;;;;;3.42;1.35;;;;;;;;;;5060878;28;20112;-76
2023/08/09 00:12:52;;;;;;;2.80;1.50;;;;;;;;;;5078331;28;20120;-76
2023/08/09 00:15:18;;;;;;;3.70;1.60;;;;;;;;;;5078244;28;20021;-77
2023/08/09 00:17:43;;;;;;;1.45;1.20;;;;;;;;;;5059297;28;20507;-77
2023/08/09 00:20:09;;;;;;;2.90;1.70;;;;;;;;;;5077448;28;20510;-77
2023/08/09 00:22:34;;;;;;;2.75;1.42;;;;;;;;;;5059629;28;20020;-77
2023/08/09 00:25:00;;;;;;;2.72;1.60;;;;;;;;;;5059630;28;20544;-76
2023/08/09 00:27:28;;;;;;;4.40;1.77;;;;;;;;;;5075931;28;20028;-76
2023/08/09 00:29:53;;;;;;;2.42;1.40;;;;;;;;;;5058836;28;20028;-77
2023/08/09 00:32:18;;;;;;;2.22;1.40;;;;;;;;;;5059200;28;20040;-76
2023/08/09 00:34:43;;;;;;;2.83;1.40;;;;;;;;;;5077621;28;20060;-77
2023/08/09 00:37:09;;;;;;;2.72;1.48;;;;;;;;;;5076243;28;20602;-76
2023/08/09 00:39:34;;;;;;;3.85;1.48;;;;;;;;;;5076057;28;20099;-76
2023/08/09 00:41:59;;;;;;;2.47;1.50;;;;;;;;;;5058041;28;20537;-76
2023/08/09 00:44:31;;;;;;;2.45;1.40;;;;;;;;;;5076045;28;20020;-77
2023/08/09 00:46:56;;;;;;;3.65;1.50;;;;;;;;;;5075595;28;20035;-76
2023/08/09 00:49:22;;;;;;;2.38;1.50;;;;;;;;;;5059954;28;20399;-75
2023/08/09 00:51:48;;;;;;;6.20;1.38;;;;;;;;;;5076341;28;20024;-76
2023/08/09 00:54:13;;;;;;;3.63;1.50;;;;;;;;;;5056906;28;20491;-77
2023/08/09 00:56:39;;;;;;;2.65;1.30;;;;;;;;;;5074287;28;20024;-77
2023/08/09 00:59:04;;;;;;;2.20;1.23;;;;;;;;;;5057260;28;20031;-76
2023/08/09 01:01:29;;;;;;;3.53;1.42;;;;;;;;;;5057677;28;20016;-76
2023/08/09 01:03:55;;;;;;;5.53;1.42;;;;;;;;;;5075290;28;20094;-77
2023/08/09 01:06:28;;;;;;;3.22;1.30;;;;;;;;;;5058028;28;20051;-77
2023/08/09 01:09:06;;;;;;;3.40;1.40;;;;;;;;;;5057610;28;20024;-77
2023/08/09 01:11:53;;;;;;;4.22;1.60;;;;;;;;;;5074132;28;20495;-76
2023/08/09 01:14:20;;;;;;;2.58;1.52;;;;;;;;;;5074637;28;20107;-76
2023/08/09 01:16:46;;;;;;;4.10;1.40;;;;;;;;;;5074599;28;20032;-77
2023/08/09 01:19:36;;;;;;;3.17;1.35;;;;;;;;;;5057275;28;20039;-77
2023/08/09 01:22:13;;;;;;;2.92;1.25;;;;;;;;;;5057878;28;20025;-77
2023/08/09 01:24:38;;;;;;;3.08;1.20;;;;;;;;;;5058589;28;20028;-77
2023/08/09 01:27:04;;;;;;;2.83;1.50;;;;;;;;;;5075465;28;20107;-77
2023/08/09 01:29:29;;;;;;;3.35;1.33;;;;;;;;;;5056985;28;20055;-77
2023/08/09 01:31:54;;;;;;;3.80;1.27;;;;;;;;;;5074456;28;20034;-77
2023/08/09 01:34:20;;;;;;;2.53;1.23;;;;;;;;;;5057284;28;20119;-77
2023/08/09 01:36:52;;;;;;;4.03;1.40;;;;;;;;;;5073838;28;20033;-77
2023/08/09 01:39:24;;;;;;;4.63;1.50;;;;;;;;;;5057279;28;20123;-77
2023/08/09 01:41:50;;;;;;;2.92;1.20;;;;;;;;;;5058447;28;20063;-77
2023/08/09 01:44:16;;;;;;;2.13;1.30;;;;;;;;;;5076333;28;20029;-78
2023/08/09 01:46:43;;;;;;;3.60;1.30;;;;;;;;;;5075179;28;20472;-77
2023/08/09 01:49:14;;;;;;;4.90;1.38;;;;;;;;;;5057169;28;20028;-77
2023/08/09 01:51:40;;;;;;;3.47;1.30;;;;;;;;;;5057063;28;20021;-77
2023/08/09 01:54:06;;;;;;;5.13;1.70;;;;;;;;;;5057138;28;20085;-77
2023/08/09 01:56:32;;;;;;;3.40;1.25;;;;;;;;;;5056811;28;20052;-77
2023/08/09 01:58:58;;;;;;;2.28;1.17;;;;;;;;;;5057171;28;20021;-77
2023/08/09 02:01:24;;;;;;;3.17;1.23;;;;;;;;;;5059787;28;20059;-77
2023/08/09 02:03:49;;;;;;;4.18;1.55;;;;;;;;;;5077936;28;20028;-76
2023/08/09 02:06:15;;;;;;;2.97;1.58;;;;;;;;;;5077837;28;20024;-76
2023/08/09 02:08:42;;;;;;;2.55;1.30;;;;;;;;;;5077685;28;20510;-76
2023/08/09 02:11:07;;;;;;;4.93;1.40;;;;;;;;;;5058573;28;20047;-76
2023/08/09 02:13:32;;;;;;;1.60;1.17;;;;;;;;;;5075966;28;20479;-77
2023/08/09 02:15:58;;;;;;;3.35;1.20;;;;;;;;;;5075924;28;20025;-77
2023/08/09 02:18:23;;;;;;;2.95;1.40;;;;;;;;;;5074899;28;20024;-75
2023/08/09 02:20:48;;;;;;;2.45;1.48;;;;;;;;;;5074634;28;20020;-77
2023/08/09 02:23:14;;;;;;;2.25;1.40;;;;;;;;;;5056796;28;20060;-75
2023/08/09 02:25:39;;;;;;;2.72;1.35;;;;;;;;;;5057251;28;20059;-76
2023/08/09 02:28:04;;;;;;;2.95;1.30;;;;;;;;;;5074691;28;20028;-76
2023/08/09 02:30:30;;;;;;;2.80;1.40;;;;;;;;;;5074442;28;20099;-77
2023/08/09 02:32:55;;;;;;;7.15;1.60;;;;;;;;;;5074302;28;20024;-77
2023/08/09 02:35:20;;;;;;;4.43;1.20;;;;;;;;;;5057183;28;20440;-77
2023/08/09 02:37:45;;;;;;;2.80;1.30;;;;;;;;;;5075367;28;20119;-77
2023/08/09 02:40:11;;;;;;;3.90;1.35;;;;;;;;;;5057147;28;20017;-76
2023/08/09 02:42:37;;;;;;;3.85;1.48;;;;;;;;;;5074382;28;20070;-76
2023/08/09 02:45:03;;;;;;;2.30;1.40;;;;;;;;;;5073287;28;20054;-77
2023/08/09 02:47:28;;;;;;;3.83;1.30;;;;;;;;;;5073216;28;20047;-77
2023/08/09 02:49:54;;;;;;;2.70;1.20;;;;;;;;;;5073342;28;20501;-77
2023/08/09 02:52:19;;;;;;;4.88;1.55;;;;;;;;;;5074236;28;20346;-77
2023/08/09 02:54:44;;;;;;;4.13;1.40;;;;;;;;;;5074539;28;20116;-75
2023/08/09 02:57:10;;;;;;;2.25;1.30;;;;;;;;;;5056272;28;20260;-77
2023/08/09 02:59:35;;;;;;;2.95;1.50;;;;;;;;;;5055122;28;20036;-77
2023/08/09 03:02:01;;;;;;;3.22;1.40;;;;;;;;;;5057219;28;20013;-77
2023/08/09 03:04:26;;;;;;;1.52;1.30;;;;;;;;;;5076519;28;20506;-77
2023/08/09 03:06:52;;;;;;;3.22;1.50;;;;;;;;;;5076184;28;20146;-76
2023/08/09 03:09:17;;;;;;;2.53;1.27;;;;;;;;;;5077131;28;20035;-76
2023/08/09 03:11:43;;;;;;;2.10;1.40;;;;;;;;;;5076484;28;20084;-76
2023/08/09 03:14:10;;;;;;;3.55;1.40;;;;;;;;;;5058374;28;20032;-77
2023/08/09 03:16:35;;;;;;;1.83;1.20;;;;;;;;;;5075747;28;20024;-76
2023/08/09 03:19:00;;;;;;;3.05;1.38;;;;;;;;;;5075434;28;20040;-77
2023/08/09 03:21:26;;;;;;;2.03;1.40;;;;;;;;;;5075763;28;20020;-77
2023/08/09 03:23:52;;;;;;;3.40;1.50;;;;;;;;;;5075553;28;20017;-77
2023/08/09 03:26:17;;;;;;;3.90;1.30;;;;;;;;;;5076453;28;20499;-77
2023/08/09 03:28:42;;;;;;;2.67;1.58;;;;;;;;;;5058120;28;20029;-76
2023/08/09 03:31:08;;;;;;;4.32;1.70;;;;;;;;;;5075622;28;20502;-75
2023/08/09 03:33:34;;;;;;;2.30;1.40;;;;;;;;;;5056613;28;20081;-76
2023/08/09 03:35:59;;;;;;;2.75;1.48;;;;;;;;;;5056673;28;20017;-77
2023/08/09 03:38:24;;;;;;;3.55;1.60;;;;;;;;;;5075538;28;20028;-77
2023/08/09 03:40:50;;;;;;;4.78;1.42;;;;;;;;;;5060058;28;20020;-76
2023/08/09 03:43:15;;;;;;;2.75;1.70;;;;;;;;;;5077402;28;20017;-76
2023/08/09 03:45:40;;;;;;;3.47;1.67;;;;;;;;;;5077960;28;20024;-76
2023/08/09 03:48:06;;;;;;;4.43;1.70;;;;;;;;;;5059659;28;20077;-77
2023/08/09 03:50:31;;;;;;;3.65;1.55;;;;;;;;;;5077983;28;20027;-77
2023/08/09 03:52:57;;;;;;;2.90;1.58;;;;;;;;;;5079410;28;20032;-77
2023/08/09 03:55:22;;;;;;;2.80;1.55;;;;;;;;;;5062239;28;20103;-77
2023/08/09 03:57:47;;;;;;;1.88;1.67;;;;;;;;;;5078425;28;20483;-77
2023/08/09 04:00:17;;;;;;;5.90;1.92;;;;;;;;;;5078240;28;20028;-77
2023/08/09 04:02:45;;;;;;;3.20;1.60;;;;;;;;;;5078597;28;20428;-77
2023/08/09 04:05:11;;;;;;;4.55;1.65;;;;;;;;;;5077477;28;20028;-77
2023/08/09 04:07:37;;;;;;;4.38;1.90;;;;;;;;;;5060035;28;20020;-77
2023/08/09 04:10:05;;;;;;;3.95;1.55;;;;;;;;;;5079178;28;20031;-77
2023/08/09 04:12:30;;;;;;;2.72;1.60;;;;;;;;;;5078397;28;20078;-77
2023/08/09 04:14:55;;;;;;;3.22;1.63;;;;;;;;;;5078833;28;20107;-76
2023/08/09 04:17:21;;;;;;;3.55;1.48;;;;;;;;;;5078868;28;20107;-74
2023/08/09 04:19:46;;;;;;;4.30;1.70;;;;;;;;;;5078128;28;20057;-76
2023/08/09 04:22:11;;;;;;;3.45;1.60;;;;;;;;;;5078735;28;20080;-74
2023/08/09 04:24:37;;;;;;;4.88;1.58;;;;;;;;;;5078924;28;20021;-76
2023/08/09 04:27:02;;;;;;;2.03;1.40;;;;;;;;;;5079082;28;20024;-77
2023/08/09 04:29:28;;;;;;;4.07;1.50;;;;;;;;;;5078693;28;20024;-76
2023/08/09 04:31:53;;;;;;;5.57;1.80;;;;;;;;;;5078642;28;20099;-74
2023/08/09 04:34:18;;;;;;;3.17;1.50;;;;;;;;;;5079773;28;20074;-76
2023/08/09 04:36:44;;;;;;;3.60;1.65;;;;;;;;;;5079465;28;20025;-76
2023/08/09 04:39:09;;;;;;;3.67;1.67;;;;;;;;;;5079170;28;20546;-76
2023/08/09 04:41:37;;;;;;;3.53;1.75;;;;;;;;;;5078939;28;20016;-76
2023/08/09 04:44:03;;;;;;;2.33;1.80;;;;;;;;;;5061037;28;20024;-76
2023/08/09 04:46:28;;;;;;;5.70;1.70;;;;;;;;;;5078711;28;20035;-76
2023/08/09 04:48:54;;;;;;;2.90;1.92;;;;;;;;;;5078766;28;20476;-76
2023/08/09 04:51:19;;;;;;;10.20;2.25;;;;;;;;;;5060173;28;20491;-77
2023/08/09 04:53:44;;;;;;;3.67;1.80;;;;;;;;;;5078675;28;20071;-76
2023/08/09 04:56:10;;;;;;;5.30;1.90;;;;;;;;;;5078497;28;20021;-75
2023/08/09 04:58:35;;;;;;;9.25;2.00;;;;;;;;;;5060494;28;20028;-75
2023/08/09 05:01:01;;;;;;;3.95;1.90;;;;;;;;;;5077859;28;20025;-76
2023/08/09 05:03:26;;;;;;;3.83;2.20;;;;;;;;;;5075716;28;20020;-77
2023/08/09 05:05:51;;;;;;;9.43;2.28;;;;;;;;;;5075595;28;20027;-77
2023/08/09 05:08:17;;;;;;;6.45;2.25;;;;;;;;;;5075284;28;20071;-77
2023/08/09 05:10:42;;;;;;;5.03;1.88;;;;;;;;;;5075106;28;20466;-76
2023/08/09 05:13:07;;;;;;;4.13;1.92;;;;;;;;;;5075157;28;20039;-77
2023/08/09 05:15:33;;;;;;;17.75;2.08;;;;;;;;;;5076008;28;20028;-76
2023/08/09 05:17:58;;;;;;;4.05;1.60;;;;;;;;;;5076078;28;20479;-77
2023/08/09 05:20:24;;;;;;;6.05;1.80;;;;;;;;;;5058099;28;20031;-77
2023/08/09 05:22:50;;;;;;;4.30;1.90;;;;;;;;;;5075838;28;20025;-77
2023/08/09 05:25:16;;;;;;;3.72;2.05;;;;;;;;;;5057728;28;20099;-77
2023/08/09 05:27:41;;;;;;;9.18;2.20;;;;;;;;;;5058056;28;20091;-77
2023/08/09 05:30:07;;;;;;;3.63;2.00;;;;;;;;;;5059010;28;20056;-77
2023/08/09 05:32:32;;;;;;;47.90;2.85;;;;;;;;;;5077141;28;20020;-77
2023/08/09 05:34:58;;;;;;;7.95;2.00;;;;;;;;;;5058488;28;20028;-77
2023/08/09 05:37:23;;;;;;;11.80;2.03;;;;;;;;;;5058610;28;20024;-77
2023/08/09 05:39:48;;;;;;;13.70;2.45;;;;;;;;;;5075531;28;20027;-76
2023/08/09 05:42:13;;;;;;;19.90;2.13;;;;;;;;;;5076576;28;20021;-76
2023/08/09 05:44:39;;;;;;;17.90;2.20;;;;;;;;;;5076780;28;20272;-76
2023/08/09 05:47:04;;;;;;;9.15;1.85;;;;;;;;;;5058090;28;20028;-75
2023/08/09 05:49:29;;;;;;;13.52;2.20;;;;;;;;;;5059235;28;20070;-76
2023/08/09 05:51:55;;;;;;;4.75;1.80;;;;;;;;;;5075238;28;20025;-76
2023/08/09 05:54:20;;;;;;;7.93;1.75;;;;;;;;;;5056462;28;20087;-77
2023/08/09 05:56:45;;;;;;;7.63;1.70;;;;;;;;;;5075745;28;20024;-75
2023/08/09 05:59:11;;;;;;;2.53;1.52;;;;;;;;;;5058153;28;20115;-76
2023/08/09 06:01:37;;;;;;;4.07;1.60;;;;;;;;;;5075618;28;20400;-75
2023/08/09 06:04:02;;;;;;;4.78;1.45;;;;;;;;;;5076267;28;20468;-76
2023/08/09 06:06:27;;;;;;;3.30;1.60;;;;;;;;;;5077743;28;20037;-76
2023/08/09 06:08:53;;;;;;;3.70;1.80;;;;;;;;;;5077415;28;20024;-75
2023/08/09 06:11:19;;;;;;;4.45;1.60;;;;;;;;;;5074786;28;20036;-77
2023/08/09 06:13:45;;;;;;;3.05;1.65;;;;;;;;;;5076192;28;20020;-80
2023/08/09 06:16:10;;;;;;;2.97;1.65;;;;;;;;;;5078512;28;20033;-78
2023/08/09 06:18:35;;;;;;;2.88;1.60;;;;;;;;;;5079087;28;20024;-81
2023/08/09 06:21:01;;;;;;;2.33;1.70;;;;;;;;;;5080310;28;20024;-79
2023/08/09 06:23:26;;;;;;;2.38;1.58;;;;;;;;;;5080285;28;20028;-83
2023/08/09 06:25:52;;;;;;;2.22;1.33;;;;;;;;;;5077791;28;20020;-77
2023/08/09 06:28:17;;;;;;;2.13;1.63;;;;;;;;;;5059073;28;20036;-77
2023/08/09 06:30:43;;;;;;;3.95;1.90;;;;;;;;;;5076525;28;20020;-77
2023/08/09 06:33:08;;;;;;;2.08;1.50;;;;;;;;;;5056096;28;20033;-74
2023/08/09 06:35:34;;;;;;;2.25;1.60;;;;;;;;;;5076983;28;20063;-77
2023/08/09 06:37:59;;;;;;;3.13;1.77;;;;;;;;;;5078436;28;20032;-77
2023/08/09 06:40:25;;;;;;;3.53;2.05;;;;;;;;;;5078517;28;20039;-76
2023/08/09 06:42:50;;;;;;;2.65;2.17;;;;;;;;;;5078226;28;20527;-78
2023/08/09 06:45:15;;;;;;;3.92;2.30;;;;;;;;;;5075509;28;20115;-78
2023/08/09 06:47:41;;;;;;;2.80;2.50;;;;;;;;;;5073052;28;20055;-77
2023/08/09 06:50:07;;;;;;;2.85;1.90;;;;;;;;;;5054912;28;20395;-77
2023/08/09 06:52:36;;;;;;;2.67;1.80;;;;;;;;;;5053386;28;20510;-77
2023/08/09 06:55:01;;;;;;;3.15;1.90;;;;;;;;;;5055073;28;20149;-78
2023/08/09 06:57:27;;;;;;;3.45;1.90;;;;;;;;;;5071503;28;20067;-77
2023/08/09 06:59:53;;;;;;;3.17;1.80;;;;;;;;;;5073076;28;20020;-77
2023/08/09 07:02:20;;;;;;;2.38;1.60;;;;;;;;;;5072835;28;20243;-77
2023/08/09 07:04:45;;;;;;;5.13;1.70;;;;;;;;;;5072942;28;20020;-77
2023/08/09 07:07:10;;;;;;;3.20;1.70;;;;;;;;;;5073614;28;20432;-77
2023/08/09 07:09:35;;;;;;;2.95;1.60;;;;;;;;;;5073025;28;20032;-77
2023/08/09 07:12:01;;;;;;;2.20;1.52;;;;;;;;;;5072913;28;20103;-77
2023/08/09 07:14:26;;;;;;;2.17;1.30;;;;;;;;;;5076043;28;20085;-77
2023/08/09 07:16:51;;;;;;;2.20;1.48;;;;;;;;;;5077018;28;20031;-77
2023/08/09 07:19:17;;;;;;;2.60;1.45;;;;;;;;;;5059351;28;20024;-77
2023/08/09 07:21:42;;;;;;;1.47;1.20;;;;;;;;;;5077111;28;20038;-77
2023/08/09 07:24:07;;;;;;;2.00;1.20;;;;;;;;;;5077124;28;20268;-77
2023/08/09 07:26:32;;;;;;;1.95;1.30;;;;;;;;;;5077095;28;20261;-77
2023/08/09 07:28:59;;;;;;;1.90;1.40;;;;;;;;;;5059049;28;20475;-77
2023/08/09 07:31:24;;;;;;;1.88;1.30;;;;;;;;;;5058724;28;20085;-77
2023/08/09 07:33:51;;;;;;;2.00;1.25;;;;;;;;;;5076832;28;20081;-77
2023/08/09 07:36:16;;;;;;;1.30;1.10;;;;;;;;;;5078558;28;20028;-78
2023/08/09 07:38:43;;;;;;;2.85;1.42;;;;;;;;;;5078780;28;20040;-78
2023/08/09 07:41:09;;;;;;;1.58;1.35;;;;;;;;;;5078766;28;20103;-78
2023/08/09 07:43:34;;;;;;;1.55;1.38;;;;;;;;;;5078702;28;20020;-78
2023/08/09 07:46:03;;;;;;;2.13;1.42;;;;;;;;;;5078594;28;20028;-78
2023/08/09 07:48:29;;;;;;;2.35;1.40;;;;;;;;;;5060480;28;20052;-78
2023/08/09 07:50:54;;;;;;;2.22;1.38;;;;;;;;;;5078394;28;20020;-78
2023/08/09 07:53:19;;;;;;;2.80;1.50;;;;;;;;;;5060123;28;20158;-78
2023/08/09 07:55:44;;;;;;;1.60;1.47;;;;;;;;;;5060477;28;20628;-78
2023/08/09 07:58:09;;;;;;;2.70;1.47;;;;;;;;;;5060287;28;20253;-75
2023/08/09 08:00:35;;;;;;;3.10;1.57;;;;;;;;;;5059203;28;20258;-77
2023/08/09 08:03:00;;;;;;;1.92;1.60;;;;;;;;;;5074733;28;20307;-77
2023/08/09 08:05:26;;;;;;;3.15;1.40;;;;;;;;;;5076576;28;20060;-77
2023/08/09 08:07:51;;;;;;;2.00;1.40;;;;;;;;;;5079109;28;20048;-78
2023/08/09 08:10:17;;;;;;;4.32;1.40;;;;;;;;;;5058924;28;20035;-78
2023/08/09 08:12:45;;;;;;;1.58;1.20;;;;;;;;;;5059864;28;20039;-78
2023/08/09 08:15:12;;;;;;;2.25;1.30;;;;;;;;;;5060928;28;20517;-78
2023/08/09 08:17:38;;;;;;;2.50;1.40;;;;;;;;;;5079075;28;20016;-78
2023/08/09 08:20:10;;;;;;;1.52;1.20;;;;;;;;;;5078741;28;20178;-78
2023/08/09 08:22:35;;;;;;;1.65;1.13;;;;;;;;;;5078655;28;20510;-78
2023/08/09 08:25:00;;;;;;;1.30;1.13;;;;;;;;;;5059729;28;20036;-77
2023/08/09 08:27:26;;;;;;;1.67;1.20;;;;;;;;;;5060424;28;20028;-81
2023/08/09 08:29:54;;;;;;;1.73;1.17;;;;;;;;;;5077832;28;20023;-77
2023/08/09 08:32:19;;;;;;;1.55;1.15;;;;;;;;;;5076253;28;20099;-77
2023/08/09 08:34:44;;;;;;;1.35;1.02;;;;;;;;;;5075915;28;20074;-76
2023/08/09 08:37:09;;;;;;;1.95;1.40;;;;;;;;;;5075911;28;20020;-77
2023/08/09 08:39:37;;;;;;;1.52;1.00;;;;;;;;;;5076203;28;20035;-77
2023/08/09 08:42:03;;;;;;;1.40;1.02;;;;;;;;;;5075990;28;20020;-77
2023/08/09 08:44:29;;;;;;;1.25;1.10;;;;;;;;;;5077203;28;20032;-77
2023/08/09 08:46:55;;;;;;;1.65;1.00;;;;;;;;;;5076427;28;20399;-77
2023/08/09 08:49:23;;;;;;;1.30;1.02;;;;;;;;;;5076615;28;20031;-77
2023/08/09 08:51:55;;;;;;;1.45;1.10;;;;;;;;;;5058135;28;20525;-77
2023/08/09 08:54:22;;;;;;;1.02;0.90;;;;;;;;;;5076112;28;20029;-77
2023/08/09 08:56:48;;;;;;;1.30;1.05;;;;;;;;;;5076624;28;20024;-77
2023/08/09 08:59:15;;;;;;;1.65;1.10;;;;;;;;;;5058566;28;20024;-78
2023/08/09 09:01:42;;;;;;;1.50;1.02;;;;;;;;;;5058137;28;20017;-77
2023/08/09 09:04:08;;;;;;;2.40;1.10;;;;;;;;;;5076243;28;20517;-78
2023/08/09 09:06:33;;;;;;;0.98;0.85;;;;;;;;;;5057776;28;20107;-77
2023/08/09 09:08:59;;;;;;;1.73;1.08;;;;;;;;;;5058174;28;20468;-77
2023/08/09 09:11:25;;;;;;;2.25;1.08;;;;;;;;;;5075727;28;20035;-77
2023/08/09 09:13:51;;;;;;;1.73;1.10;;;;;;;;;;5076026;28;20499;-77
2023/08/09 09:16:18;;;;;;;1.45;1.10;;;;;;;;;;5075422;28;20404;-77
2023/08/09 09:18:45;;;;;;;1.20;1.10;;;;;;;;;;5058044;28;20028;-77
2023/08/09 09:21:10;;;;;;;1.45;1.20;;;;;;;;;;5056571;28;20054;-77
2023/08/09 09:23:37;;;;;;;1.63;1.02;;;;;;;;;;5075837;28;20033;-77
2023/08/09 09:26:08;;;;;;;2.22;1.15;;;;;;;;;;5076529;28;20032;-78
2023/08/09 09:28:41;;;;;;;1.42;1.20;;;;;;;;;;5058173;28;20029;-76
2023/08/09 09:31:07;;;;;;;1.65;1.10;;;;;;;;;;5057007;28;20119;-76
2023/08/09 09:33:34;;;;;;;1.15;1.05;;;;;;;;;;5058137;28;20028;-75
2023/08/09 09:36:01;;;;;;;1.83;1.13;;;;;;;;;;5057546;28;20020;-77
2023/08/09 09:38:26;;;;;;;2.03;1.15;;;;;;;;;;5074995;28;20085;-77
2023/08/09 09:40:52;;;;;;;1.30;1.20;;;;;;;;;;5056840;28;20032;-76
2023/08/09 09:43:17;;;;;;;2.30;1.17;;;;;;;;;;5056645;28;20017;-77
2023/08/09 09:45:44;;;;;;;1.25;0.88;;;;;;;;;;5075480;28;20476;-77
2023/08/09 09:48:19;;;;;;;3.15;1.13;;;;;;;;;;5056499;28;20514;-77
2023/08/09 09:50:44;;;;;;;1.38;0.90;;;;;;;;;;5056464;28;20487;-77
2023/08/09 09:53:15;;;;;;;3.28;1.00;;;;;;;;;;5073979;28;20035;-77
2023/08/09 09:55:40;;;;;;;1.08;0.93;;;;;;;;;;5074555;28;20391;-78
2023/08/09 09:58:06;;;;;;;1.10;0.95;;;;;;;;;;5074167;28;20032;-77
2023/08/09 10:00:32;;;;;;;1.33;0.98;;;;;;;;;;5073981;28;20159;-77
2023/08/09 10:03:00;;;;;;;1.75;1.25;;;;;;;;;;5056519;28;20027;-77
2023/08/09 10:05:40;;;;;;;1.60;1.20;;;;;;;;;;5074221;28;20029;-76
2023/08/09 10:08:07;;;;;;;2.50;1.25;;;;;;;;;;5074573;28;20675;-77
2023/08/09 10:10:33;;;;;;;2.05;1.02;;;;;;;;;;5074032;28;20027;-77
2023/08/09 10:13:01;;;;;;;2.67;1.20;;;;;;;;;;5055963;28;20025;-77
2023/08/09 10:15:53;;;;;;;1.90;1.30;;;;;;;;;;5074204;28;20029;-77
2023/08/09 10:18:32;;;;;;;8.60;1.20;;;;;;;;;;5073955;28;20471;-77
2023/08/09 10:21:00;;;;;;;2.10;1.00;;;;;;;;;;5074146;28;20078;-77
2023/08/09 10:23:28;;;;;;;1.40;1.10;;;;;;;;;;5055897;28;20082;-77
2023/08/09 10:25:55;;;;;;;1.60;0.88;;;;;;;;;;5074093;28;20024;-78
2023/08/09 10:28:42;;;;;;;1.10;0.90;;;;;;;;;;5073928;28;20048;-78
2023/08/09 10:31:07;;;;;;;1.23;1.00;;;;;;;;;;5074208;28;20024;-77
2023/08/09 10:33:32;;;;;;;1.95;1.20;;;;;;;;;;5074386;28;20372;-77
2023/08/09 10:35:58;;;;;;;1.27;1.00;;;;;;;;;;5074407;28;20446;-78
2023/08/09 10:38:32;;;;;;;2.30;1.10;;;;;;;;;;5074623;28;20074;-77
2023/08/09 10:40:59;;;;;;;2.22;1.10;;;;;;;;;;5074859;28;20028;-77
2023/08/09 10:43:30;;;;;;;1.83;1.10;;;;;;;;;;5074617;28;20104;-79
2023/08/09 10:45:56;;;;;;;1.27;1.08;;;;;;;;;;5074728;28;20601;-78
2023/08/09 10:48:28;;;;;;;1.20;0.90;;;;;;;;;;5056068;28;20056;-76
2023/08/09 10:51:12;;;;;;;3.00;1.17;;;;;;;;;;5056665;28;20028;-78
2023/08/09 10:53:57;;;;;;;0.90;0.77;;;;;;;;;;5056118;28;20029;-77
2023/08/09 10:56:43;;;;;;;2.38;1.00;;;;;;;;;;5057506;28;20552;-78
2023/08/09 10:59:13;;;;;;;1.55;1.13;;;;;;;;;;5074267;28;20025;-78
2023/08/09 11:01:40;;;;;;;2.97;1.10;;;;;;;;;;5074280;28;20020;-77
2023/08/09 11:04:07;;;;;;;3.20;1.10;;;;;;;;;;5074665;28;20538;-78
2023/08/09 11:06:38;;;;;;;2.38;1.10;;;;;;;;;;5074581;28;20432;-78
2023/08/09 11:09:25;;;;;;;2.40;1.10;;;;;;;;;;5075277;28;20031;-77
2023/08/09 11:11:51;;;;;;;2.35;0.85;;;;;;;;;;5073725;28;20036;-76
2023/08/09 11:14:19;;;;;;;2.92;1.00;;;;;;;;;;5074347;28;20078;-78
2023/08/09 11:16:45;;;;;;;1.23;1.00;;;;;;;;;;5074473;28;20029;-77
2023/08/09 11:19:12;;;;;;;2.50;1.00;;;;;;;;;;5056492;28;20031;-78
2023/08/09 11:21:52;;;;;;;1.17;0.85;;;;;;;;;;5074288;28;20029;-77
2023/08/09 11:24:20;;;;;;;2.80;1.00;;;;;;;;;;5074205;28;20040;-78
2023/08/09 11:26:55;;;;;;;2.35;0.98;;;;;;;;;;5073443;28;20036;-76
2023/08/09 11:29:22;;;;;;;0.75;0.70;;;;;;;;;;5055524;28;20059;-77
2023/08/09 11:31:51;;;;;;;2.78;1.10;;;;;;;;;;5055847;28;20024;-77
2023/08/09 11:34:18;;;;;;;4.22;1.00;;;;;;;;;;5073979;28;20028;-78
2023/08/09 11:36:45;;;;;;;1.42;0.90;;;;;;;;;;5073795;28;20063;-78
2023/08/09 11:39:13;;;;;;;1.25;0.80;;;;;;;;;;5056705;28;20025;-77
2023/08/09 11:41:41;;;;;;;1.80;1.00;;;;;;;;;;5057459;28;20028;-77
2023/08/09 11:44:07;;;;;;;1.40;0.70;;;;;;;;;;5075813;28;20031;-78
2023/08/09 11:46:32;;;;;;;2.08;0.90;;;;;;;;;;5074753;28;20028;-78
2023/08/09 11:49:02;;;;;;;1.63;0.93;;;;;;;;;;5074632;28;20031;-78
2023/08/09 11:51:33;;;;;;;1.15;0.80;;;;;;;;;;5074751;28;20032;-78
2023/08/09 11:53:59;;;;;;;1.17;0.68;;;;;;;;;;5056814;28;20533;-78
2023/08/09 11:56:24;;;;;;;2.63;0.80;;;;;;;;;;5074867;28;20033;-78
2023/08/09 11:58:54;;;;;;;1.65;0.93;;;;;;;;;;5056437;28;20078;-77
2023/08/09 12:01:22;;;;;;;3.50;0.90;;;;;;;;;;5076589;28;20566;-78
2023/08/09 12:03:53;;;;;;;1.45;0.88;;;;;;;;;;5077647;28;20045;-78
2023/08/09 12:06:46;;;;;;;1.42;0.80;;;;;;;;;;5078536;28;20089;-78
2023/08/09 12:09:30;;;;;;;3.58;0.70;;;;;;;;;;5059623;28;20410;-78
2023/08/09 12:12:04;;;;;;;0.80;0.68;;;;;;;;;;5059010;28;20074;-78
2023/08/09 12:14:35;;;;;;;1.30;0.60;;;;;;;;;;5077221;28;20021;-77
2023/08/09 12:17:00;;;;;;;0.73;0.57;;;;;;;;;;5077578;28;20479;-78
2023/08/09 12:19:26;;;;;;;1.55;0.73;;;;;;;;;;5077747;28;20032;-78
2023/08/09 12:21:52;;;;;;;2.35;0.80;;;;;;;;;;5058676;28;20418;-77
2023/08/09 12:24:17;;;;;;;1.38;0.80;;;;;;;;;;5076876;28;20075;-77
2023/08/09 12:26:43;;;;;;;1.52;0.70;;;;;;;;;;5077492;28;20063;-78
2023/08/09 12:29:10;;;;;;;1.30;0.70;;;;;;;;;;5077917;28;20111;-76
2023/08/09 12:31:36;;;;;;;2.10;0.70;;;;;;;;;;5060132;28;20165;-76
2023/08/09 12:34:02;;;;;;;1.17;0.77;;;;;;;;;;5076441;28;20099;-77
2023/08/09 12:36:28;;;;;;;1.42;0.70;;;;;;;;;;5076050;28;20505;-77
2023/08/09 12:38:53;;;;;;;0.68;0.68;;;;;;;;;;5076316;28;20024;-79
2023/08/09 12:41:19;;;;;;;1.70;0.70;;;;;;;;;;5058032;28;20047;-77
2023/08/09 12:43:44;;;;;;;1.23;0.70;;;;;;;;;;5075373;28;20434;-77
2023/08/09 12:46:09;;;;;;;2.03;0.60;;;;;;;;;;5076673;28;20276;-76
2023/08/09 12:48:34;;;;;;;1.73;0.68;;;;;;;;;;5076235;28;20296;-76
2023/08/09 12:51:00;;;;;;;1.33;0.70;;;;;;;;;;5075269;28;20029;-76
2023/08/09 12:53:25;;;;;;;6.40;0.90;;;;;;;;;;5076006;28;20458;-77
2023/08/09 12:55:51;;;;;;;2.97;0.90;;;;;;;;;;5058121;28;20245;-76
2023/08/09 12:58:16;;;;;;;0.85;0.60;;;;;;;;;;5074868;28;20029;-77
2023/08/09 13:00:41;;;;;;;2.05;0.73;;;;;;;;;;5076304;28;20052;-77
2023/08/09 13:03:07;;;;;;;1.30;0.55;;;;;;;;;;5075171;28;20468;-78
2023/08/09 13:05:34;;;;;;;2.08;0.82;;;;;;;;;;5057918;28;20032;-77
2023/08/09 13:07:59;;;;;;;2.38;0.90;;;;;;;;;;5075973;28;20016;-77
2023/08/09 13:10:24;;;;;;;0.68;0.68;;;;;;;;;;5057688;28;20377;-77
2023/08/09 13:12:50;;;;;;;0.70;0.52;;;;;;;;;;5073641;28;20025;-78
2023/08/09 13:15:17;;;;;;;1.42;0.80;;;;;;;;;;5075311;28;20025;-78
2023/08/09 13:17:42;;;;;;;1.30;0.70;;;;;;;;;;5075436;28;20025;-76
2023/08/09 13:20:12;;;;;;;0.68;0.55;;;;;;;;;;5056805;28;20525;-78
2023/08/09 13:22:40;;;;;;;1.55;0.73;;;;;;;;;;5074610;28;20032;-76
2023/08/09 13:25:08;;;;;;;1.75;0.70;;;;;;;;;;5075009;28;20077;-76
2023/08/09 13:27:37;;;;;;;4.93;0.85;;;;;;;;;;5056517;28;20020;-76
2023/08/09 13:30:07;;;;;;;3.08;0.90;;;;;;;;;;5074985;28;20037;-77
2023/08/09 13:32:36;;;;;;;1.88;0.80;;;;;;;;;;5074440;28;20025;-77
2023/08/09 13:35:01;;;;;;;4.53;1.05;;;;;;;;;;5057008;28;20046;-77
2023/08/09 13:37:26;;;;;;;2.03;0.75;;;;;;;;;;5074660;28;20107;-76
2023/08/09 13:39:52;;;;;;;3.15;0.70;;;;;;;;;;5074592;28;20483;-78
2023/08/09 13:42:17;;;;;;;1.92;0.95;;;;;;;;;;5074690;28;20059;-77
2023/08/09 13:44:43;;;;;;;1.52;0.63;;;;;;;;;;5074009;28;20047;-78
2023/08/09 13:47:10;;;;;;;2.65;0.73;;;;;;;;;;5074041;28;20052;-78
2023/08/09 13:49:36;;;;;;;1.10;0.70;;;;;;;;;;5075577;28;20035;-76
2023/08/09 13:52:01;;;;;;;4.05;0.63;;;;;;;;;;5074429;28;20088;-77
2023/08/09 13:54:26;;;;;;;1.15;0.70;;;;;;;;;;5057304;28;20032;-77
2023/08/09 13:56:52;;;;;;;4.10;0.90;;;;;;;;;;5058121;28;20439;-78
2023/08/09 13:59:17;;;;;;;5.30;0.90;;;;;;;;;;5074839;28;20261;-78
2023/08/09 14:01:42;;;;;;;1.33;0.80;;;;;;;;;;5074520;28;20073;-78
2023/08/09 14:04:07;;;;;;;3.60;1.20;;;;;;;;;;5058926;28;20024;-78
2023/08/09 14:06:33;;;;;;;1.58;0.80;;;;;;;;;;5058047;28;20479;-76
2023/08/09 14:08:58;;;;;;;0.60;0.60;;;;;;;;;;5057134;28;20020;-77
2023/08/09 14:11:24;;;;;;;1.92;0.60;;;;;;;;;;5057077;28;20024;-78
2023/08/09 14:13:49;;;;;;;1.50;0.60;;;;;;;;;;5074755;28;20044;-77
2023/08/09 14:16:14;;;;;;;1.73;0.80;;;;;;;;;;5075109;28;20031;-77
2023/08/09 14:18:39;;;;;;;2.72;0.70;;;;;;;;;;5074340;28;20037;-77
2023/08/09 14:21:05;;;;;;;0.87;0.70;;;;;;;;;;5074335;28;20090;-76
2023/08/09 14:23:30;;;;;;;2.77;0.83;;;;;;;;;;5073936;28;20360;-76
2023/08/09 14:25:55;;;;;;;3.10;0.63;;;;;;;;;;5056348;28;20318;-77
2023/08/09 14:28:22;;;;;;;0.40;0.40;;;;;;;;;;5055802;28;20119;-78
2023/08/09 14:30:48;;;;;;;1.50;0.75;;;;;;;;;;5056832;28;20025;-78
2023/08/09 14:33:14;;;;;;;1.90;0.80;;;;;;;;;;5074799;28;20047;-78
2023/08/09 14:35:40;;;;;;;2.95;0.73;;;;;;;;;;5075000;28;20039;-77
2023/08/09 14:38:05;;;;;;;1.48;1.00;;;;;;;;;;5057405;28;20024;-79
2023/08/09 14:40:32;;;;;;;3.97;0.75;;;;;;;;;;5073994;28;20031;-75